sensor_id;sensor_type;location;lat;lon;timestamp;P1;durP1;ratioP1;P2;durP2;ratioP2
51525;SDS011;37611;51.794;21.590;2023-07-13T00:00:50;8.70;;;6.80;;
51525;SDS011;37611;51.794;21.590;2023-07-13T00:05:11;8.20;;;7.50;;
51525;SDS011;37611;51.794;21.590;2023-07-13T00:09:14;10.10;;;7.90;;
51525;SDS011;37611;51.794;21.590;2023-07-13T00:13:17;8.40;;;7.30;;
51525;SDS011;37611;51.794;21.590;2023-07-13T00:17:19;10.80;;;7.50;;
51525;SDS011;37611;51.794;21.590;2023-07-13T00:21:21;8.70;;;7.30;;
51525;SDS011;37611;51.794;21.590;2023-07-13T00:25:22;9.00;;;6.80;;
51525;SDS011;37611;51.794;21.590;2023-07-13T00:29:31;8.30;;;7.40;;
51525;SDS011;37611;51.794;21.590;2023-07-13T00:33:35;8.50;;;7.30;;
51525;SDS011;37611;51.794;21.590;2023-07-13T00:37:37;9.80;;;7.60;;
51525;SDS011;37611;51.794;21.590;2023-07-13T00:41:39;9.90;;;7.70;;
51525;SDS011;37611;51.794;21.590;2023-07-13T00:49:46;8.30;;;7.60;;
51525;SDS011;37611;51.794;21.590;2023-07-13T00:53:47;10.00;;;7.40;;
51525;SDS011;37611;51.794;21.590;2023-07-13T00:57:50;8.60;;;7.80;;
51525;SDS011;37611;51.794;21.590;2023-07-13T01:01:51;7.80;;;7.10;;
51525;SDS011;37611;51.794;21.590;2023-07-13T01:05:54;9.00;;;7.60;;
51525;SDS011;37611;51.794;21.590;2023-07-13T01:09:56;9.70;;;7.20;;
51525;SDS011;37611;51.794;21.590;2023-07-13T01:13:57;11.70;;;7.50;;
51525;SDS011;37611;51.794;21.590;2023-07-13T01:17:59;8.10;;;7.10;;
51525;SDS011;37611;51.794;21.590;2023-07-13T01:22:09;9.30;;;7.10;;
51525;SDS011;37611;51.794;21.590;2023-07-13T01:26:16;9.70;;;7.80;;
51525;SDS011;37611;51.794;21.590;2023-07-13T01:30:18;8.20;;;7.40;;
51525;SDS011;37611;51.794;21.590;2023-07-13T01:34:20;8.30;;;7.40;;
51525;SDS011;37611;51.794;21.590;2023-07-13T01:38:22;7.70;;;6.80;;
51525;SDS011;37611;51.794;21.590;2023-07-13T01:42:24;7.90;;;7.10;;
51525;SDS011;37611;51.794;21.590;2023-07-13T01:46:26;9.10;;;8.00;;
51525;SDS011;37611;51.794;21.590;2023-07-13T01:50:28;8.50;;;7.00;;
51525;SDS011;37611;51.794;21.590;2023-07-13T01:54:30;8.10;;;7.30;;
51525;SDS011;37611;51.794;21.590;2023-07-13T01:58:31;8.40;;;7.60;;
51525;SDS011;37611;51.794;21.590;2023-07-13T02:02:33;8.40;;;7.60;;
51525;SDS011;37611;51.794;21.590;2023-07-13T02:06:35;9.50;;;7.10;;
51525;SDS011;37611;51.794;21.590;2023-07-13T02:10:37;8.30;;;7.10;;
51525;SDS011;37611;51.794;21.590;2023-07-13T02:14:38;7.80;;;6.90;;
51525;SDS011;37611;51.794;21.590;2023-07-13T02:18:40;7.20;;;6.60;;
51525;SDS011;37611;51.794;21.590;2023-07-13T02:22:42;7.70;;;6.80;;
51525;SDS011;37611;51.794;21.590;2023-07-13T02:26:44;7.40;;;6.60;;
51525;SDS011;37611;51.794;21.590;2023-07-13T02:30:46;9.30;;;7.50;;
51525;SDS011;37611;51.794;21.590;2023-07-13T02:34:48;8.00;;;7.00;;
51525;SDS011;37611;51.794;21.590;2023-07-13T02:38:50;9.70;;;7.20;;
51525;SDS011;37611;51.794;21.590;2023-07-13T02:42:52;8.60;;;7.20;;
51525;SDS011;37611;51.794;21.590;2023-07-13T02:46:54;9.10;;;8.10;;
51525;SDS011;37611;51.794;21.590;2023-07-13T02:50:55;8.40;;;7.50;;
51525;SDS011;37611;51.794;21.590;2023-07-13T02:54:57;8.60;;;7.80;;
51525;SDS011;37611;51.794;21.590;2023-07-13T02:58:59;8.70;;;7.80;;
51525;SDS011;37611;51.794;21.590;2023-07-13T03:03:01;9.20;;;7.30;;
51525;SDS011;37611;51.794;21.590;2023-07-13T03:07:03;9.50;;;7.80;;
51525;SDS011;37611;51.794;21.590;2023-07-13T03:11:06;11.40;;;8.30;;
51525;SDS011;37611;51.794;21.590;2023-07-13T03:15:12;8.20;;;7.40;;
51525;SDS011;37611;51.794;21.590;2023-07-13T03:19:13;9.00;;;7.50;;
51525;SDS011;37611;51.794;21.590;2023-07-13T03:23:15;9.10;;;8.20;;
51525;SDS011;37611;51.794;21.590;2023-07-13T03:27:18;9.00;;;7.90;;
51525;SDS011;37611;51.794;21.590;2023-07-13T03:31:23;8.90;;;8.00;;
51525;SDS011;37611;51.794;21.590;2023-07-13T03:35:27;9.00;;;7.40;;
51525;SDS011;37611;51.794;21.590;2023-07-13T03:39:29;8.30;;;7.60;;
51525;SDS011;37611;51.794;21.590;2023-07-13T03:43:31;8.70;;;7.80;;
51525;SDS011;37611;51.794;21.590;2023-07-13T03:47:32;10.10;;;9.00;;
51525;SDS011;37611;51.794;21.590;2023-07-13T03:51:34;9.70;;;8.70;;
51525;SDS011;37611;51.794;21.590;2023-07-13T03:55:36;10.60;;;8.10;;
51525;SDS011;37611;51.794;21.590;2023-07-13T03:59:38;9.80;;;8.20;;
51525;SDS011;37611;51.794;21.590;2023-07-13T04:03:40;17.20;;;11.80;;
51525;SDS011;37611;51.794;21.590;2023-07-13T04:07:42;13.40;;;8.30;;
51525;SDS011;37611;51.794;21.590;2023-07-13T04:11:44;13.30;;;8.90;;
51525;SDS011;37611;51.794;21.590;2023-07-13T04:15:46;11.70;;;8.60;;
51525;SDS011;37611;51.794;21.590;2023-07-13T04:19:47;14.10;;;8.70;;
51525;SDS011;37611;51.794;21.590;2023-07-13T04:23:50;17.40;;;9.80;;
51525;SDS011;37611;51.794;21.590;2023-07-13T04:27:52;11.80;;;9.80;;
51525;SDS011;37611;51.794;21.590;2023-07-13T04:31:54;13.90;;;9.90;;
51525;SDS011;37611;51.794;21.590;2023-07-13T04:35:56;10.80;;;9.70;;
51525;SDS011;37611;51.794;21.590;2023-07-13T04:39:59;13.90;;;9.70;;
51525;SDS011;37611;51.794;21.590;2023-07-13T04:44:00;10.80;;;9.70;;
51525;SDS011;37611;51.794;21.590;2023-07-13T04:48:04;11.30;;;9.90;;
51525;SDS011;37611;51.794;21.590;2023-07-13T04:52:07;13.80;;;11.40;;
51525;SDS011;37611;51.794;21.590;2023-07-13T04:56:09;12.60;;;11.30;;
51525;SDS011;37611;51.794;21.590;2023-07-13T05:00:11;13.80;;;10.90;;
51525;SDS011;37611;51.794;21.590;2023-07-13T05:04:14;13.00;;;10.70;;
51525;SDS011;37611;51.794;21.590;2023-07-13T05:08:16;17.20;;;11.70;;
51525;SDS011;37611;51.794;21.590;2023-07-13T05:12:18;13.00;;;11.70;;
51525;SDS011;37611;51.794;21.590;2023-07-13T05:16:20;13.70;;;12.40;;
51525;SDS011;37611;51.794;21.590;2023-07-13T05:20:21;13.70;;;10.90;;
51525;SDS011;37611;51.794;21.590;2023-07-13T05:24:23;15.10;;;12.90;;
51525;SDS011;37611;51.794;21.590;2023-07-13T05:28:25;15.90;;;13.80;;
51525;SDS011;37611;51.794;21.590;2023-07-13T05:32:28;16.20;;;13.40;;
51525;SDS011;37611;51.794;21.590;2023-07-13T05:36:30;15.10;;;13.00;;
51525;SDS011;37611;51.794;21.590;2023-07-13T05:40:31;19.50;;;14.00;;
51525;SDS011;37611;51.794;21.590;2023-07-13T05:44:33;14.50;;;13.00;;
51525;SDS011;37611;51.794;21.590;2023-07-13T05:48:35;14.80;;;13.10;;
51525;SDS011;37611;51.794;21.590;2023-07-13T05:52:37;17.30;;;14.20;;
51525;SDS011;37611;51.794;21.590;2023-07-13T05:56:39;15.40;;;12.90;;
51525;SDS011;37611;51.794;21.590;2023-07-13T06:00:41;14.30;;;12.40;;
51525;SDS011;37611;51.794;21.590;2023-07-13T06:04:43;14.50;;;12.90;;
51525;SDS011;37611;51.794;21.590;2023-07-13T06:08:44;14.40;;;11.80;;
51525;SDS011;37611;51.794;21.590;2023-07-13T06:12:46;13.30;;;11.90;;
51525;SDS011;37611;51.794;21.590;2023-07-13T06:16:48;14.30;;;13.00;;
51525;SDS011;37611;51.794;21.590;2023-07-13T06:20:50;14.10;;;12.20;;
51525;SDS011;37611;51.794;21.590;2023-07-13T06:24:52;13.00;;;11.70;;
51525;SDS011;37611;51.794;21.590;2023-07-13T06:28:53;13.40;;;12.20;;
51525;SDS011;37611;51.794;21.590;2023-07-13T06:32:55;14.10;;;12.70;;
51525;SDS011;37611;51.794;21.590;2023-07-13T06:36:57;13.80;;;12.50;;
51525;SDS011;37611;51.794;21.590;2023-07-13T06:40:59;14.30;;;12.90;;
51525;SDS011;37611;51.794;21.590;2023-07-13T06:45:01;13.00;;;11.80;;
51525;SDS011;37611;51.794;21.590;2023-07-13T06:49:03;13.80;;;12.40;;
51525;SDS011;37611;51.794;21.590;2023-07-13T06:53:05;15.30;;;12.00;;
51525;SDS011;37611;51.794;21.590;2023-07-13T06:57:07;12.90;;;11.70;;
51525;SDS011;37611;51.794;21.590;2023-07-13T07:01:09;15.10;;;12.10;;
51525;SDS011;37611;51.794;21.590;2023-07-13T07:05:11;15.10;;;11.70;;
51525;SDS011;37611;51.794;21.590;2023-07-13T07:09:13;12.70;;;11.40;;
51525;SDS011;37611;51.794;21.590;2023-07-13T07:13:15;12.20;;;10.50;;
51525;SDS011;37611;51.794;21.590;2023-07-13T07:17:17;10.50;;;9.40;;
51525;SDS011;37611;51.794;21.590;2023-07-13T07:21:19;13.50;;;11.30;;
51525;SDS011;37611;51.794;21.590;2023-07-13T07:25:20;12.90;;;11.80;;
51525;SDS011;37611;51.794;21.590;2023-07-13T07:29:22;11.90;;;10.70;;
51525;SDS011;37611;51.794;21.590;2023-07-13T07:33:26;12.10;;;10.40;;
51525;SDS011;37611;51.794;21.590;2023-07-13T07:37:28;11.20;;;10.20;;
51525;SDS011;37611;51.794;21.590;2023-07-13T07:41:30;14.20;;;10.30;;
51525;SDS011;37611;51.794;21.590;2023-07-13T07:45:32;15.00;;;10.50;;
51525;SDS011;37611;51.794;21.590;2023-07-13T07:49:34;14.20;;;12.10;;
51525;SDS011;37611;51.794;21.590;2023-07-13T07:53:37;13.90;;;11.40;;
51525;SDS011;37611;51.794;21.590;2023-07-13T07:57:39;14.20;;;11.10;;
51525;SDS011;37611;51.794;21.590;2023-07-13T08:01:41;12.60;;;11.40;;
51525;SDS011;37611;51.794;21.590;2023-07-13T08:05:42;13.20;;;11.80;;
51525;SDS011;37611;51.794;21.590;2023-07-13T08:09:44;13.10;;;11.60;;
51525;SDS011;37611;51.794;21.590;2023-07-13T08:13:49;13.90;;;11.50;;
51525;SDS011;37611;51.794;21.590;2023-07-13T08:17:51;11.90;;;10.80;;
51525;SDS011;37611;51.794;21.590;2023-07-13T08:21:53;11.90;;;10.60;;
51525;SDS011;37611;51.794;21.590;2023-07-13T08:25:55;12.30;;;10.80;;
51525;SDS011;37611;51.794;21.590;2023-07-13T08:29:58;18.10;;;10.60;;
51525;SDS011;37611;51.794;21.590;2023-07-13T08:34:00;11.10;;;9.90;;
51525;SDS011;37611;51.794;21.590;2023-07-13T08:38:01;22.10;;;10.40;;
51525;SDS011;37611;51.794;21.590;2023-07-13T08:42:12;14.10;;;10.10;;
51525;SDS011;37611;51.794;21.590;2023-07-13T08:46:25;13.50;;;9.80;;
51525;SDS011;37611;51.794;21.590;2023-07-13T08:50:35;9.90;;;9.00;;
51525;SDS011;37611;51.794;21.590;2023-07-13T08:54:49;11.00;;;9.70;;
51525;SDS011;37611;51.794;21.590;2023-07-13T08:58:57;15.00;;;9.00;;
51525;SDS011;37611;51.794;21.590;2023-07-13T09:03:02;10.80;;;9.00;;
51525;SDS011;37611;51.794;21.590;2023-07-13T09:15:42;13.90;;;8.50;;
51525;SDS011;37611;51.794;21.590;2023-07-13T09:19:48;10.90;;;8.00;;
51525;SDS011;37611;51.794;21.590;2023-07-13T09:23:59;13.30;;;8.90;;
51525;SDS011;37611;51.794;21.590;2023-07-13T09:28:09;9.80;;;8.80;;
51525;SDS011;37611;51.794;21.590;2023-07-13T09:32:15;9.40;;;8.10;;
51525;SDS011;37611;51.794;21.590;2023-07-13T09:36:25;10.40;;;7.90;;
51525;SDS011;37611;51.794;21.590;2023-07-13T09:40:40;9.10;;;7.90;;
51525;SDS011;37611;51.794;21.590;2023-07-13T09:49:03;9.70;;;8.00;;
51525;SDS011;37611;51.794;21.590;2023-07-13T09:53:11;9.20;;;8.00;;
51525;SDS011;37611;51.794;21.590;2023-07-13T09:57:15;9.00;;;8.00;;
51525;SDS011;37611;51.794;21.590;2023-07-13T10:01:33;9.00;;;7.80;;
51525;SDS011;37611;51.794;21.590;2023-07-13T10:05:37;8.60;;;7.80;;
51525;SDS011;37611;51.794;21.590;2023-07-13T10:09:41;12.10;;;7.40;;
51525;SDS011;37611;51.794;21.590;2023-07-13T10:13:52;10.80;;;7.30;;
51525;SDS011;37611;51.794;21.590;2023-07-13T10:18:01;8.50;;;7.70;;
51525;SDS011;37611;51.794;21.590;2023-07-13T10:30:40;9.70;;;6.90;;
51525;SDS011;37611;51.794;21.590;2023-07-13T10:34:47;9.20;;;8.10;;
51525;SDS011;37611;51.794;21.590;2023-07-13T10:38:51;7.80;;;7.10;;
51525;SDS011;37611;51.794;21.590;2023-07-13T10:42:56;9.50;;;7.90;;
51525;SDS011;37611;51.794;21.590;2023-07-13T10:47:02;9.50;;;7.60;;
51525;SDS011;37611;51.794;21.590;2023-07-13T10:51:10;9.90;;;7.80;;
51525;SDS011;37611;51.794;21.590;2023-07-13T10:59:33;9.20;;;8.30;;
51525;SDS011;37611;51.794;21.590;2023-07-13T11:03:47;9.50;;;8.50;;
51525;SDS011;37611;51.794;21.590;2023-07-13T11:07:52;8.60;;;7.60;;
51525;SDS011;37611;51.794;21.590;2023-07-13T11:12:01;9.10;;;7.70;;
51525;SDS011;37611;51.794;21.590;2023-07-13T11:20:23;9.80;;;8.80;;
51525;SDS011;37611;51.794;21.590;2023-07-13T11:24:49;16.20;;;7.60;;
51525;SDS011;37611;51.794;21.590;2023-07-13T11:29:00;14.70;;;6.70;;
51525;SDS011;37611;51.794;21.590;2023-07-13T11:37:41;9.70;;;7.70;;
51525;SDS011;37611;51.794;21.590;2023-07-13T11:41:44;12.50;;;11.20;;
51525;SDS011;37611;51.794;21.590;2023-07-13T11:45:51;12.60;;;11.50;;
51525;SDS011;37611;51.794;21.590;2023-07-13T11:49:54;12.40;;;11.00;;
51525;SDS011;37611;51.794;21.590;2023-07-13T11:54:02;12.30;;;11.20;;
51525;SDS011;37611;51.794;21.590;2023-07-13T11:58:07;13.50;;;12.20;;
51525;SDS011;37611;51.794;21.590;2023-07-13T12:02:24;11.70;;;10.70;;
51525;SDS011;37611;51.794;21.590;2023-07-13T12:06:32;17.10;;;13.50;;
51525;SDS011;37611;51.794;21.590;2023-07-13T12:10:38;15.10;;;13.70;;
51525;SDS011;37611;51.794;21.590;2023-07-13T12:14:40;15.90;;;14.30;;
51525;SDS011;37611;51.794;21.590;2023-07-13T12:18:42;15.10;;;13.40;;
51525;SDS011;37611;51.794;21.590;2023-07-13T12:22:49;15.30;;;13.90;;
51525;SDS011;37611;51.794;21.590;2023-07-13T12:31:03;20.60;;;6.00;;
51525;SDS011;37611;51.794;21.590;2023-07-13T12:35:23;7.00;;;4.30;;
51525;SDS011;37611;51.794;21.590;2023-07-13T12:39:34;7.00;;;4.30;;
51525;SDS011;37611;51.794;21.590;2023-07-13T12:43:47;14.50;;;4.80;;
51525;SDS011;37611;51.794;21.590;2023-07-13T12:47:49;10.00;;;5.90;;
51525;SDS011;37611;51.794;21.590;2023-07-13T12:52:02;11.30;;;6.40;;
51525;SDS011;37611;51.794;21.590;2023-07-13T12:56:15;9.10;;;5.30;;
51525;SDS011;37611;51.794;21.590;2023-07-13T13:00:32;9.70;;;5.70;;
51525;SDS011;37611;51.794;21.590;2023-07-13T13:04:40;9.70;;;6.20;;
51525;SDS011;37611;51.794;21.590;2023-07-13T13:08:47;7.30;;;5.60;;
51525;SDS011;37611;51.794;21.590;2023-07-13T13:12:51;8.20;;;6.10;;
51525;SDS011;37611;51.794;21.590;2023-07-13T13:16:53;8.20;;;5.70;;
51525;SDS011;37611;51.794;21.590;2023-07-13T13:20:56;7.60;;;6.30;;
51525;SDS011;37611;51.794;21.590;2023-07-13T13:24:57;7.40;;;5.70;;
51525;SDS011;37611;51.794;21.590;2023-07-13T13:29:00;6.40;;;5.40;;
51525;SDS011;37611;51.794;21.590;2023-07-13T13:33:01;6.00;;;5.40;;
51525;SDS011;37611;51.794;21.590;2023-07-13T13:37:04;7.00;;;5.20;;
51525;SDS011;37611;51.794;21.590;2023-07-13T13:41:17;6.80;;;5.10;;
51525;SDS011;37611;51.794;21.590;2023-07-13T13:45:19;5.10;;;4.40;;
51525;SDS011;37611;51.794;21.590;2023-07-13T13:49:23;5.50;;;4.40;;
51525;SDS011;37611;51.794;21.590;2023-07-13T13:53:27;7.00;;;5.10;;
51525;SDS011;37611;51.794;21.590;2023-07-13T13:57:29;5.20;;;4.70;;
51525;SDS011;37611;51.794;21.590;2023-07-13T14:01:32;5.40;;;4.90;;
51525;SDS011;37611;51.794;21.590;2023-07-13T14:05:34;6.80;;;5.40;;
51525;SDS011;37611;51.794;21.590;2023-07-13T14:09:36;4.90;;;4.40;;
51525;SDS011;37611;51.794;21.590;2023-07-13T14:13:41;5.70;;;5.10;;
51525;SDS011;37611;51.794;21.590;2023-07-13T14:17:45;8.20;;;6.20;;
51525;SDS011;37611;51.794;21.590;2023-07-13T14:21:51;9.00;;;6.30;;
51525;SDS011;37611;51.794;21.590;2023-07-13T14:25:54;12.20;;;9.10;;
51525;SDS011;37611;51.794;21.590;2023-07-13T14:29:56;10.50;;;7.50;;
51525;SDS011;37611;51.794;21.590;2023-07-13T14:33:58;13.10;;;8.70;;
51525;SDS011;37611;51.794;21.590;2023-07-13T14:38:00;8.50;;;6.20;;
51525;SDS011;37611;51.794;21.590;2023-07-13T14:42:02;6.30;;;5.70;;
51525;SDS011;37611;51.794;21.590;2023-07-13T14:46:04;7.30;;;5.90;;
51525;SDS011;37611;51.794;21.590;2023-07-13T14:50:18;7.00;;;5.80;;
51525;SDS011;37611;51.794;21.590;2023-07-13T14:54:28;12.40;;;8.60;;
51525;SDS011;37611;51.794;21.590;2023-07-13T14:58:30;9.20;;;6.40;;
51525;SDS011;37611;51.794;21.590;2023-07-13T15:02:34;7.00;;;6.40;;
51525;SDS011;37611;51.794;21.590;2023-07-13T15:06:58;6.80;;;6.00;;
51525;SDS011;37611;51.794;21.590;2023-07-13T15:11:01;8.50;;;6.80;;
51525;SDS011;37611;51.794;21.590;2023-07-13T15:15:05;8.00;;;7.20;;
51525;SDS011;37611;51.794;21.590;2023-07-13T15:19:09;8.10;;;6.70;;
51525;SDS011;37611;51.794;21.590;2023-07-13T15:23:16;7.70;;;6.80;;
51525;SDS011;37611;51.794;21.590;2023-07-13T15:27:19;7.90;;;7.10;;
51525;SDS011;37611;51.794;21.590;2023-07-13T15:31:22;7.70;;;6.90;;
51525;SDS011;37611;51.794;21.590;2023-07-13T15:35:26;7.40;;;6.70;;
51525;SDS011;37611;51.794;21.590;2023-07-13T15:39:29;9.80;;;6.30;;
51525;SDS011;37611;51.794;21.590;2023-07-13T15:43:33;7.70;;;7.00;;
51525;SDS011;37611;51.794;21.590;2023-07-13T15:47:35;9.50;;;6.40;;
51525;SDS011;37611;51.794;21.590;2023-07-13T15:51:37;7.70;;;6.90;;
51525;SDS011;37611;51.794;21.590;2023-07-13T15:55:39;7.40;;;6.80;;
51525;SDS011;37611;51.794;21.590;2023-07-13T15:59:41;10.20;;;6.90;;
51525;SDS011;37611;51.794;21.590;2023-07-13T16:03:44;8.60;;;7.20;;
51525;SDS011;37611;51.794;21.590;2023-07-13T16:07:48;8.00;;;7.20;;
51525;SDS011;37611;51.794;21.590;2023-07-13T16:11:52;10.90;;;8.40;;
51525;SDS011;37611;51.794;21.590;2023-07-13T16:15:56;10.80;;;9.70;;
51525;SDS011;37611;51.794;21.590;2023-07-13T16:19:58;16.70;;;9.90;;
51525;SDS011;37611;51.794;21.590;2023-07-13T16:24:00;11.20;;;10.00;;
51525;SDS011;37611;51.794;21.590;2023-07-13T16:28:06;10.10;;;9.20;;
51525;SDS011;37611;51.794;21.590;2023-07-13T16:32:11;9.70;;;8.30;;
51525;SDS011;37611;51.794;21.590;2023-07-13T16:36:14;13.70;;;12.30;;
51525;SDS011;37611;51.794;21.590;2023-07-13T16:40:21;13.50;;;11.60;;
51525;SDS011;37611;51.794;21.590;2023-07-13T16:44:31;12.20;;;9.80;;
51525;SDS011;37611;51.794;21.590;2023-07-13T16:48:34;12.10;;;9.60;;
51525;SDS011;37611;51.794;21.590;2023-07-13T16:52:35;11.50;;;10.40;;
51525;SDS011;37611;51.794;21.590;2023-07-13T16:56:38;10.60;;;9.50;;
51525;SDS011;37611;51.794;21.590;2023-07-13T17:00:41;8.90;;;8.10;;
51525;SDS011;37611;51.794;21.590;2023-07-13T17:04:43;10.10;;;9.10;;
51525;SDS011;37611;51.794;21.590;2023-07-13T17:08:47;9.10;;;8.30;;
51525;SDS011;37611;51.794;21.590;2023-07-13T17:12:49;13.00;;;10.30;;
51525;SDS011;37611;51.794;21.590;2023-07-13T17:16:53;12.60;;;9.70;;
51525;SDS011;37611;51.794;21.590;2023-07-13T17:20:58;11.70;;;8.30;;
51525;SDS011;37611;51.794;21.590;2023-07-13T17:25:10;9.80;;;8.80;;
51525;SDS011;37611;51.794;21.590;2023-07-13T17:29:14;12.00;;;9.90;;
51525;SDS011;37611;51.794;21.590;2023-07-13T17:33:32;13.60;;;12.40;;
51525;SDS011;37611;51.794;21.590;2023-07-13T17:37:36;12.10;;;10.80;;
51525;SDS011;37611;51.794;21.590;2023-07-13T17:41:38;11.30;;;10.10;;
51525;SDS011;37611;51.794;21.590;2023-07-13T17:45:44;9.70;;;8.80;;
51525;SDS011;37611;51.794;21.590;2023-07-13T17:49:48;9.10;;;8.20;;
51525;SDS011;37611;51.794;21.590;2023-07-13T17:53:51;8.80;;;8.00;;
51525;SDS011;37611;51.794;21.590;2023-07-13T17:57:55;13.40;;;8.70;;
51525;SDS011;37611;51.794;21.590;2023-07-13T18:01:57;9.60;;;7.30;;
51525;SDS011;37611;51.794;21.590;2023-07-13T18:06:00;8.20;;;7.10;;
51525;SDS011;37611;51.794;21.590;2023-07-13T18:10:08;7.70;;;7.00;;
51525;SDS011;37611;51.794;21.590;2023-07-13T18:14:14;7.90;;;6.90;;
51525;SDS011;37611;51.794;21.590;2023-07-13T18:18:16;7.40;;;6.70;;
51525;SDS011;37611;51.794;21.590;2023-07-13T18:22:19;8.40;;;7.30;;
51525;SDS011;37611;51.794;21.590;2023-07-13T18:26:20;8.70;;;7.10;;
51525;SDS011;37611;51.794;21.590;2023-07-13T18:30:25;7.80;;;6.20;;
51525;SDS011;37611;51.794;21.590;2023-07-13T18:34:27;9.10;;;7.10;;
51525;SDS011;37611;51.794;21.590;2023-07-13T18:38:29;8.70;;;6.80;;
51525;SDS011;37611;51.794;21.590;2023-07-13T18:42:33;7.40;;;6.10;;
51525;SDS011;37611;51.794;21.590;2023-07-13T18:46:35;10.10;;;6.40;;
51525;SDS011;37611;51.794;21.590;2023-07-13T18:50:38;10.80;;;6.70;;
51525;SDS011;37611;51.794;21.590;2023-07-13T18:54:43;7.50;;;6.70;;
51525;SDS011;37611;51.794;21.590;2023-07-13T18:58:44;7.50;;;6.30;;
51525;SDS011;37611;51.794;21.590;2023-07-13T19:02:46;7.50;;;6.60;;
51525;SDS011;37611;51.794;21.590;2023-07-13T19:06:48;9.30;;;7.50;;
51525;SDS011;37611;51.794;21.590;2023-07-13T19:10:51;9.40;;;7.80;;
51525;SDS011;37611;51.794;21.590;2023-07-13T19:14:54;8.80;;;7.90;;
51525;SDS011;37611;51.794;21.590;2023-07-13T19:18:56;7.10;;;6.40;;
51525;SDS011;37611;51.794;21.590;2023-07-13T19:23:00;11.40;;;7.30;;
51525;SDS011;37611;51.794;21.590;2023-07-13T19:27:08;11.10;;;7.00;;
51525;SDS011;37611;51.794;21.590;2023-07-13T19:31:22;10.40;;;7.90;;
51525;SDS011;37611;51.794;21.590;2023-07-13T19:35:36;8.60;;;7.00;;
51525;SDS011;37611;51.794;21.590;2023-07-13T19:39:38;8.40;;;7.30;;
51525;SDS011;37611;51.794;21.590;2023-07-13T19:43:42;12.10;;;9.50;;
51525;SDS011;37611;51.794;21.590;2023-07-13T19:47:44;10.40;;;8.10;;
51525;SDS011;37611;51.794;21.590;2023-07-13T19:51:47;50.60;;;29.80;;
51525;SDS011;37611;51.794;21.590;2023-07-13T19:55:49;20.60;;;13.70;;
51525;SDS011;37611;51.794;21.590;2023-07-13T19:59:51;11.20;;;9.10;;
51525;SDS011;37611;51.794;21.590;2023-07-13T20:03:55;11.60;;;10.40;;
51525;SDS011;37611;51.794;21.590;2023-07-13T20:07:57;14.20;;;12.70;;
51525;SDS011;37611;51.794;21.590;2023-07-13T20:12:00;12.40;;;11.20;;
51525;SDS011;37611;51.794;21.590;2023-07-13T20:16:02;73.00;;;47.40;;
51525;SDS011;37611;51.794;21.590;2023-07-13T20:28:25;40.60;;;33.00;;
51525;SDS011;37611;51.794;21.590;2023-07-13T20:32:27;12.00;;;9.40;;
51525;SDS011;37611;51.794;21.590;2023-07-13T20:36:29;17.50;;;15.80;;
51525;SDS011;37611;51.794;21.590;2023-07-13T20:40:33;18.00;;;16.20;;
51525;SDS011;37611;51.794;21.590;2023-07-13T20:44:35;16.60;;;15.00;;
51525;SDS011;37611;51.794;21.590;2023-07-13T20:48:38;13.00;;;11.80;;
51525;SDS011;37611;51.794;21.590;2023-07-13T20:52:47;14.70;;;13.40;;
51525;SDS011;37611;51.794;21.590;2023-07-13T20:56:49;15.30;;;11.90;;
51525;SDS011;37611;51.794;21.590;2023-07-13T21:00:51;13.10;;;11.80;;
51525;SDS011;37611;51.794;21.590;2023-07-13T21:04:56;12.10;;;10.80;;
51525;SDS011;37611;51.794;21.590;2023-07-13T21:08:58;15.20;;;10.90;;
51525;SDS011;37611;51.794;21.590;2023-07-13T21:13:01;12.00;;;10.80;;
51525;SDS011;37611;51.794;21.590;2023-07-13T21:17:03;12.50;;;11.00;;
51525;SDS011;37611;51.794;21.590;2023-07-13T21:21:07;11.90;;;10.20;;
51525;SDS011;37611;51.794;21.590;2023-07-13T21:25:13;11.90;;;10.30;;
51525;SDS011;37611;51.794;21.590;2023-07-13T21:29:17;12.00;;;10.80;;
51525;SDS011;37611;51.794;21.590;2023-07-13T21:33:19;11.80;;;10.30;;
51525;SDS011;37611;51.794;21.590;2023-07-13T21:37:21;11.20;;;10.10;;
51525;SDS011;37611;51.794;21.590;2023-07-13T21:41:24;11.30;;;10.20;;
51525;SDS011;37611;51.794;21.590;2023-07-13T21:45:29;11.30;;;10.20;;
51525;SDS011;37611;51.794;21.590;2023-07-13T21:49:31;11.60;;;10.40;;
51525;SDS011;37611;51.794;21.590;2023-07-13T21:53:32;11.90;;;10.50;;
51525;SDS011;37611;51.794;21.590;2023-07-13T21:57:34;12.20;;;11.10;;
51525;SDS011;37611;51.794;21.590;2023-07-13T22:01:36;11.10;;;10.00;;
51525;SDS011;37611;51.794;21.590;2023-07-13T22:05:38;11.60;;;10.40;;
51525;SDS011;37611;51.794;21.590;2023-07-13T22:09:40;11.60;;;10.50;;
51525;SDS011;37611;51.794;21.590;2023-07-13T22:13:42;13.70;;;12.30;;
51525;SDS011;37611;51.794;21.590;2023-07-13T22:17:46;13.60;;;11.70;;
51525;SDS011;37611;51.794;21.590;2023-07-13T22:21:50;12.60;;;11.40;;
51525;SDS011;37611;51.794;21.590;2023-07-13T22:25:52;12.60;;;11.40;;
51525;SDS011;37611;51.794;21.590;2023-07-13T22:29:56;12.40;;;11.10;;
51525;SDS011;37611;51.794;21.590;2023-07-13T22:33:58;14.60;;;12.20;;
51525;SDS011;37611;51.794;21.590;2023-07-13T22:38:01;12.50;;;11.40;;
51525;SDS011;37611;51.794;21.590;2023-07-13T22:42:03;12.30;;;11.20;;
51525;SDS011;37611;51.794;21.590;2023-07-13T22:46:05;14.40;;;11.90;;
51525;SDS011;37611;51.794;21.590;2023-07-13T22:50:12;15.60;;;12.20;;
51525;SDS011;37611;51.794;21.590;2023-07-13T22:54:15;12.80;;;11.50;;
51525;SDS011;37611;51.794;21.590;2023-07-13T22:58:17;13.40;;;11.80;;
51525;SDS011;37611;51.794;21.590;2023-07-13T23:02:20;12.70;;;11.50;;
51525;SDS011;37611;51.794;21.590;2023-07-13T23:06:26;14.40;;;11.00;;
51525;SDS011;37611;51.794;21.590;2023-07-13T23:10:30;13.10;;;11.10;;
51525;SDS011;37611;51.794;21.590;2023-07-13T23:14:32;12.50;;;11.30;;
51525;SDS011;37611;51.794;21.590;2023-07-13T23:18:34;12.60;;;11.40;;
51525;SDS011;37611;51.794;21.590;2023-07-13T23:22:35;13.70;;;12.30;;
51525;SDS011;37611;51.794;21.590;2023-07-13T23:26:37;12.50;;;11.30;;
51525;SDS011;37611;51.794;21.590;2023-07-13T23:30:47;12.70;;;11.40;;
51525;SDS011;37611;51.794;21.590;2023-07-13T23:34:50;13.10;;;11.80;;
51525;SDS011;37611;51.794;21.590;2023-07-13T23:38:52;13.40;;;12.30;;
51525;SDS011;37611;51.794;21.590;2023-07-13T23:42:54;12.90;;;11.80;;
51525;SDS011;37611;51.794;21.590;2023-07-13T23:46:56;12.40;;;11.10;;
51525;SDS011;37611;51.794;21.590;2023-07-13T23:50:58;15.40;;;11.70;;
51525;SDS011;37611;51.794;21.590;2023-07-13T23:55:00;17.50;;;13.50;;
51525;SDS011;37611;51.794;21.590;2023-07-13T23:59:02;18.90;;;15.10;;
